createdAt,value
2023-04-21T00:02:00.716Z,7.30
2023-04-21T00:04:28.958Z,7.30
2023-04-21T00:06:57.002Z,7.30
2023-04-21T00:09:24.869Z,7.30
2023-04-21T00:11:52.666Z,7.30
2023-04-21T00:14:20.782Z,7.20
2023-04-21T00:16:52.446Z,7.20
2023-04-21T00:19:21.705Z,7.20
2023-04-21T00:21:49.496Z,7.10
2023-04-21T00:24:17.329Z,7.10
2023-04-21T00:26:45.137Z,7.10
2023-04-21T00:29:12.964Z,7.00
2023-04-21T00:31:40.781Z,7.00
2023-04-21T00:34:08.588Z,6.90
2023-04-21T00:36:37.763Z,6.90
2023-04-21T00:39:05.683Z,6.90
2023-04-21T00:41:35.259Z,6.80
2023-04-21T00:44:04.599Z,6.80
2023-04-21T00:46:32.901Z,6.80
2023-04-21T00:49:01.220Z,6.80
2023-04-21T00:51:29.919Z,6.80
2023-04-21T00:53:59.205Z,6.70
2023-04-21T00:56:28.245Z,6.70
2023-04-21T00:58:56.347Z,6.70
2023-04-21T01:01:24.322Z,6.70
2023-04-21T01:03:52.823Z,6.60
2023-04-21T01:06:21.021Z,6.60
2023-04-21T01:08:49.530Z,6.60
2023-04-21T01:11:18.679Z,6.60
2023-04-21T01:13:46.630Z,6.60
2023-04-21T01:16:17.828Z,6.60
2023-04-21T01:18:45.636Z,6.50
2023-04-21T01:21:14.320Z,6.50
2023-04-21T01:23:43.563Z,6.40
2023-04-21T01:26:11.430Z,6.40
2023-04-21T01:28:39.446Z,6.40
2023-04-21T01:31:07.424Z,6.40
2023-04-21T01:33:35.415Z,6.30
2023-04-21T01:36:10.639Z,6.30
2023-04-21T01:38:40.460Z,6.30
2023-04-21T01:41:10.866Z,6.30
2023-04-21T01:43:39.209Z,6.30
2023-04-21T01:46:07.279Z,6.30
2023-04-21T01:48:35.291Z,6.20
2023-04-21T01:51:03.289Z,6.20
2023-04-21T01:53:31.101Z,6.20
2023-04-21T01:55:58.942Z,6.20
2023-04-21T01:58:28.097Z,6.20
2023-04-21T02:00:55.950Z,6.10
2023-04-21T02:03:23.907Z,6.10
2023-04-21T02:05:51.866Z,6.10
2023-04-21T02:08:19.701Z,6.10
2023-04-21T02:10:47.552Z,6.10
2023-04-21T02:13:15.367Z,6.10
2023-04-21T02:15:44.648Z,6.00
2023-04-21T02:18:13.377Z,6.00
2023-04-21T02:20:41.370Z,6.00
2023-04-21T02:23:09.323Z,6.00
2023-04-21T02:25:37.101Z,6.00
2023-04-21T02:28:05.247Z,6.00
2023-04-21T02:30:33.049Z,5.90
2023-04-21T02:33:02.367Z,5.90
2023-04-21T02:35:30.267Z,5.90
2023-04-21T02:37:58.090Z,5.80
2023-04-21T02:40:26.256Z,5.80
2023-04-21T02:42:54.060Z,5.80
2023-04-21T02:45:21.900Z,5.80
2023-04-21T02:47:49.694Z,5.80
2023-04-21T02:50:18.894Z,5.80
2023-04-21T02:52:46.730Z,5.70
2023-04-21T02:55:14.553Z,5.70
2023-04-21T02:57:42.358Z,5.70
2023-04-21T03:00:12.609Z,5.70
2023-04-21T03:02:40.640Z,5.70
2023-04-21T03:05:09.260Z,5.70
2023-04-21T03:07:38.409Z,5.60
2023-04-21T03:10:07.268Z,5.60
2023-04-21T03:12:35.413Z,5.60
2023-04-21T03:15:03.436Z,5.60
2023-04-21T03:17:33.197Z,5.60
2023-04-21T03:20:01.272Z,5.60
2023-04-21T03:22:29.079Z,5.60
2023-04-21T03:24:58.238Z,5.60
2023-04-21T03:27:26.039Z,5.50
2023-04-21T03:29:53.917Z,5.50
2023-04-21T03:32:21.794Z,5.50
2023-04-21T03:34:50.339Z,5.50
2023-04-21T03:37:18.124Z,5.40
2023-04-21T03:39:45.955Z,5.40
2023-04-21T03:42:15.152Z,5.40
2023-04-21T03:44:42.915Z,5.40
2023-04-21T03:47:10.731Z,5.30
2023-04-21T03:49:38.548Z,5.30
2023-04-21T03:52:06.479Z,5.30
2023-04-21T03:54:34.293Z,5.20
2023-04-21T03:57:02.126Z,5.20
2023-04-21T03:59:31.343Z,5.20
2023-04-21T04:01:59.242Z,5.20
2023-04-21T04:04:27.267Z,5.20
2023-04-21T04:06:55.207Z,5.10
2023-04-21T04:09:23.211Z,5.10
2023-04-21T04:11:51.118Z,5.10
2023-04-21T04:14:18.951Z,5.10
2023-04-21T04:16:48.144Z,5.10
2023-04-21T04:19:16.140Z,5.00
2023-04-21T04:21:44.021Z,5.00
2023-04-21T04:24:12.127Z,5.00
2023-04-21T04:26:40.092Z,5.00
2023-04-21T04:29:10.500Z,4.90
2023-04-21T04:31:38.398Z,4.90
2023-04-21T04:34:09.665Z,4.90
2023-04-21T04:36:37.340Z,4.90
2023-04-21T04:39:06.377Z,4.90
2023-04-21T04:41:36.361Z,4.90
2023-04-21T04:44:05.094Z,4.90
2023-04-21T04:46:33.065Z,4.80
2023-04-21T04:49:01.244Z,4.90
2023-04-21T04:51:30.378Z,4.80
2023-04-21T04:53:58.203Z,4.80
2023-04-21T04:56:26.110Z,4.80
2023-04-21T04:58:53.912Z,4.80
2023-04-21T05:01:22.375Z,4.80
2023-04-21T05:03:50.407Z,4.80
2023-04-21T05:06:18.304Z,4.80
2023-04-21T05:08:47.569Z,4.80
2023-04-21T05:11:15.489Z,4.70
2023-04-21T05:13:43.312Z,4.70
2023-04-21T05:16:11.613Z,4.70
2023-04-21T05:18:39.805Z,4.70
2023-04-21T05:21:08.261Z,4.70
2023-04-21T05:23:36.078Z,4.80
2023-04-21T05:26:05.604Z,4.70
2023-04-21T05:28:33.577Z,4.70
2023-04-21T05:31:01.403Z,4.70
2023-04-21T05:33:31.617Z,4.80
2023-04-21T05:35:59.455Z,4.70
2023-04-21T05:38:27.476Z,4.70
2023-04-21T05:40:56.409Z,4.70
2023-04-21T05:43:25.558Z,4.70
2023-04-21T05:45:53.657Z,4.80
2023-04-21T05:48:21.542Z,4.70
2023-04-21T05:50:49.407Z,4.80
2023-04-21T05:53:17.237Z,4.80
2023-04-21T05:55:45.061Z,4.80
2023-04-21T05:58:12.865Z,4.80
2023-04-21T06:00:42.150Z,4.80
2023-04-21T06:03:10.363Z,4.80
2023-04-21T06:05:38.632Z,4.80
2023-04-21T06:08:06.821Z,4.80
2023-04-21T06:10:34.794Z,4.80
2023-04-21T06:13:02.665Z,4.90
2023-04-21T06:15:30.537Z,4.90
2023-04-21T06:17:59.745Z,4.90
2023-04-21T06:20:28.465Z,4.90
2023-04-21T06:22:56.343Z,4.90
2023-04-21T06:25:24.410Z,4.90
2023-04-21T06:27:52.222Z,4.90
2023-04-21T06:30:20.563Z,5.00
2023-04-21T06:32:48.730Z,5.00
2023-04-21T06:35:18.808Z,5.00
2023-04-21T06:37:46.711Z,5.00
2023-04-21T06:40:15.956Z,5.10
2023-04-21T06:42:43.965Z,5.10
2023-04-21T06:45:12.477Z,5.10
2023-04-21T06:47:40.622Z,5.20
2023-04-21T06:50:09.817Z,5.20
2023-04-21T06:52:38.941Z,5.20
2023-04-21T06:55:07.918Z,5.30
2023-04-21T06:57:35.856Z,5.30
2023-04-21T07:00:05.622Z,5.30
2023-04-21T07:02:33.583Z,5.30
2023-04-21T07:05:01.603Z,5.40
2023-04-21T07:07:29.420Z,5.40
2023-04-21T07:09:58.657Z,5.40
2023-04-21T07:12:26.654Z,5.40
2023-04-21T07:14:54.520Z,5.40
2023-04-21T07:17:22.393Z,5.40
2023-04-21T07:19:52.377Z,5.50
2023-04-21T07:22:20.336Z,5.60
2023-04-21T07:24:49.503Z,5.70
2023-04-21T07:27:19.553Z,5.70
2023-04-21T07:29:47.411Z,5.80
2023-04-21T07:32:15.604Z,5.80
2023-04-21T07:34:46.140Z,5.90
2023-04-21T07:37:14.026Z,5.90
2023-04-21T07:39:41.878Z,6.00
2023-04-21T07:42:12.516Z,6.10
2023-04-21T07:44:41.821Z,6.10
2023-04-21T07:47:09.735Z,6.20
2023-04-21T07:49:37.584Z,6.20
2023-04-21T07:52:05.752Z,6.30
2023-04-21T07:54:33.557Z,6.40
2023-04-21T07:57:01.645Z,6.50
2023-04-21T07:59:29.515Z,6.60
2023-04-21T08:01:58.724Z,6.60
2023-04-21T08:04:27.179Z,6.70
2023-04-21T08:06:55.522Z,6.70
2023-04-21T08:09:23.468Z,6.80
2023-04-21T08:11:51.358Z,6.90
2023-04-21T08:14:19.374Z,7.00
2023-04-21T08:16:47.884Z,7.10
2023-04-21T08:19:17.407Z,7.20
2023-04-21T08:21:45.458Z,7.20
2023-04-21T08:24:13.352Z,7.30
2023-04-21T08:26:41.178Z,7.40
2023-04-21T08:29:10.712Z,7.50
2023-04-21T08:31:38.677Z,7.60
2023-04-21T08:34:07.168Z,7.70
2023-04-21T08:36:36.454Z,7.80
2023-04-21T08:39:04.693Z,8.00
2023-04-21T08:41:32.595Z,8.00
2023-04-21T08:44:00.509Z,8.10
2023-04-21T08:46:29.129Z,8.30
2023-04-21T08:48:59.959Z,8.30
2023-04-21T08:51:30.115Z,8.40
2023-04-21T08:53:59.590Z,8.50
2023-04-21T08:56:27.683Z,8.70
2023-04-21T08:58:55.578Z,8.80
2023-04-21T09:01:23.466Z,8.80
2023-04-21T09:03:51.514Z,8.90
2023-04-21T09:06:19.779Z,9.00
2023-04-21T09:08:56.672Z,9.00
2023-04-21T09:11:25.971Z,9.10
2023-04-21T09:13:58.141Z,9.20
2023-04-21T09:16:26.358Z,9.30
2023-04-21T09:18:54.283Z,9.40
2023-04-21T09:23:56.474Z,9.60
2023-04-21T09:26:26.964Z,9.70
2023-04-21T09:28:55.057Z,9.80
2023-04-21T09:31:25.552Z,9.90
2023-04-21T09:33:58.665Z,10.00
2023-04-21T09:36:29.304Z,10.10
2023-04-21T09:39:24.430Z,10.20
2023-04-21T09:41:47.761Z,10.20
2023-04-21T09:44:17.715Z,10.30
2023-04-21T09:46:49.420Z,10.40
2023-04-21T09:49:17.828Z,10.50
2023-04-21T09:54:29.145Z,10.60
2023-04-21T09:57:02.437Z,10.70
2023-04-21T09:59:33.292Z,10.80
2023-04-21T10:02:02.168Z,10.80
2023-04-21T10:04:32.827Z,10.90
2023-04-21T10:07:01.400Z,11.00
2023-04-21T10:09:36.526Z,11.00
2023-04-21T10:12:09.156Z,11.10
2023-04-21T10:14:37.623Z,11.20
2023-04-21T10:17:06.963Z,11.30
2023-04-21T10:19:39.785Z,11.30
2023-04-21T10:22:09.578Z,11.30
2023-04-21T10:24:39.786Z,11.40
2023-04-21T10:27:10.948Z,11.50
2023-04-21T10:29:52.664Z,11.60
2023-04-21T10:32:40.068Z,11.70
2023-04-21T10:35:10.711Z,11.90
2023-04-21T10:37:38.565Z,11.90
2023-04-21T10:40:10.051Z,11.90
2023-04-21T10:42:39.273Z,12.10
2023-04-21T10:45:12.586Z,12.20
2023-04-21T10:47:44.371Z,12.20
2023-04-21T10:50:14.796Z,12.30
2023-04-21T10:52:46.132Z,12.30
2023-04-21T10:55:16.081Z,12.40
2023-04-21T10:57:46.457Z,12.50
2023-04-21T11:00:18.602Z,12.60
2023-04-21T11:02:55.243Z,12.70
2023-04-21T11:05:34.548Z,12.80
2023-04-21T11:08:20.128Z,12.90
2023-04-21T11:10:53.784Z,13.00
2023-04-21T11:13:24.526Z,13.00
2023-04-21T11:16:03.437Z,13.10
2023-04-21T11:18:42.344Z,13.20
2023-04-21T11:21:12.473Z,13.30
2023-04-21T11:23:48.847Z,13.40
2023-04-21T11:26:16.741Z,13.40
2023-04-21T11:28:49.561Z,13.50
2023-04-21T11:31:17.574Z,13.60
2023-04-21T11:33:45.600Z,13.60
2023-04-21T11:36:13.476Z,13.70
2023-04-21T11:38:42.045Z,13.80
2023-04-21T11:41:10.985Z,14.00
2023-04-21T11:43:39.564Z,14.20
2023-04-21T11:46:32.258Z,14.20
2023-04-21T11:49:01.385Z,14.30
2023-04-21T11:51:34.409Z,14.30
2023-04-21T11:54:02.497Z,14.40
2023-04-21T11:56:30.339Z,14.40
2023-04-21T11:58:58.381Z,14.40
2023-04-21T12:01:28.471Z,14.60
2023-04-21T12:03:57.081Z,14.60
2023-04-21T12:06:27.011Z,14.60
2023-04-21T12:09:01.402Z,14.70
2023-04-21T12:11:31.132Z,14.80
2023-04-21T12:13:59.442Z,14.80
2023-04-21T12:16:30.032Z,14.90
2023-04-21T12:18:58.102Z,15.00
2023-04-21T12:21:28.663Z,15.10
2023-04-21T12:23:56.856Z,15.20
2023-04-21T12:26:24.927Z,15.30
2023-04-21T12:28:53.169Z,15.30
2023-04-21T12:31:21.154Z,15.50
2023-04-21T12:33:50.700Z,15.50
2023-04-21T12:36:18.681Z,15.70
2023-04-21T12:38:46.639Z,15.80
2023-04-21T12:41:14.536Z,15.80
2023-04-21T12:43:42.374Z,15.80
2023-04-21T12:46:10.301Z,15.80
2023-04-21T12:48:38.249Z,16.00
2023-04-21T12:51:08.085Z,16.10
2023-04-21T12:53:36.778Z,16.20
2023-04-21T12:56:05.587Z,16.30
2023-04-21T12:58:33.736Z,16.40
2023-04-21T13:01:01.716Z,16.50
2023-04-21T13:03:29.824Z,16.50
2023-04-21T13:05:58.558Z,16.50
2023-04-21T13:08:27.821Z,16.60
2023-04-21T13:10:55.765Z,16.70
2023-04-21T13:13:23.628Z,16.70
2023-04-21T13:15:51.562Z,16.70
2023-04-21T13:18:19.462Z,16.70
2023-04-21T13:20:47.526Z,16.70
2023-04-21T13:23:16.065Z,16.80
2023-04-21T13:25:46.342Z,16.80
2023-04-21T13:28:14.889Z,16.90
2023-04-21T13:30:42.929Z,16.90
2023-04-21T13:33:11.000Z,16.90
2023-04-21T13:35:39.164Z,17.00
2023-04-21T13:38:07.182Z,17.10
2023-04-21T13:40:35.070Z,17.20
2023-04-21T13:43:04.633Z,17.30
2023-04-21T13:45:32.630Z,17.50
2023-04-21T13:48:00.583Z,17.60
2023-04-21T13:50:28.545Z,17.70
2023-04-21T13:52:56.353Z,17.80
2023-04-21T13:55:24.341Z,17.80
2023-04-21T13:57:52.614Z,18.00
2023-04-21T14:00:22.251Z,18.10
2023-04-21T14:02:50.271Z,18.20
2023-04-21T14:05:18.761Z,18.30
2023-04-21T14:07:46.767Z,18.20
2023-04-21T14:10:14.743Z,18.30
2023-04-21T14:12:44.913Z,18.40
2023-04-21T14:15:14.514Z,18.50
2023-04-21T14:17:43.849Z,18.50
2023-04-21T14:20:12.843Z,18.60
2023-04-21T14:22:40.692Z,18.70
2023-04-21T14:25:09.190Z,18.80
2023-04-21T14:27:37.121Z,18.80
2023-04-21T14:30:06.090Z,18.80
2023-04-21T14:32:34.079Z,18.90
2023-04-21T14:35:04.905Z,18.90
2023-04-21T14:37:33.085Z,18.90
2023-04-21T14:40:01.636Z,18.90
2023-04-21T14:42:29.689Z,18.80
2023-04-21T14:44:57.660Z,18.90
2023-04-21T14:47:26.187Z,19.00
2023-04-21T14:49:55.873Z,19.20
2023-04-21T14:54:56.631Z,19.70
2023-04-21T14:57:24.536Z,19.80
2023-04-21T14:59:54.032Z,19.90
2023-04-21T15:02:22.764Z,20.00
2023-04-21T15:04:51.016Z,20.10
2023-04-21T15:07:23.956Z,20.20
2023-04-21T15:09:55.388Z,20.20
2023-04-21T15:12:23.404Z,20.30
2023-04-21T15:14:51.353Z,20.30
2023-04-21T15:17:19.264Z,20.40
2023-04-21T15:19:47.086Z,20.30
2023-04-21T15:22:15.387Z,20.10
2023-04-21T15:24:43.475Z,20.00
2023-04-21T15:27:12.744Z,19.90
2023-04-21T15:29:40.707Z,19.80
2023-04-21T15:32:08.706Z,19.60
2023-04-21T15:34:36.650Z,19.60
2023-04-21T15:37:04.717Z,19.40
2023-04-21T15:39:32.527Z,19.40
2023-04-21T15:42:01.500Z,19.30
2023-04-21T15:44:31.439Z,19.20
2023-04-21T15:46:59.354Z,19.20
2023-04-21T15:49:27.296Z,19.00
2023-04-21T15:51:55.185Z,18.90
2023-04-21T15:54:23.236Z,18.90
2023-04-21T15:56:51.373Z,18.80
2023-04-21T15:59:19.293Z,18.70
2023-04-21T16:01:48.611Z,18.70
2023-04-21T16:04:16.975Z,18.60
2023-04-21T16:06:45.008Z,18.60
2023-04-21T16:09:12.927Z,18.50
2023-04-21T16:11:40.949Z,18.50
2023-04-21T16:14:09.476Z,18.50
2023-04-21T16:16:37.559Z,18.40
2023-04-21T16:19:07.048Z,18.50
2023-04-21T16:21:35.099Z,18.40
2023-04-21T16:24:05.323Z,18.40
2023-04-21T16:26:35.595Z,18.30
2023-04-21T16:29:03.686Z,18.20
2023-04-21T16:31:31.861Z,18.00
2023-04-21T16:34:00.532Z,17.90
2023-04-21T16:36:31.286Z,17.80
2023-04-21T16:38:59.198Z,17.70
2023-04-21T16:41:27.094Z,17.60
2023-04-21T16:43:55.010Z,17.50
2023-04-21T16:46:24.917Z,17.50
2023-04-21T16:48:53.376Z,17.40
2023-04-21T16:51:21.309Z,17.30
2023-04-21T16:53:50.473Z,17.30
2023-04-21T16:56:20.247Z,17.20
2023-04-21T16:58:48.144Z,17.20
2023-04-21T17:01:16.029Z,17.10
2023-04-21T17:03:44.190Z,17.10
2023-04-21T17:06:17.103Z,17.00
2023-04-21T17:08:45.002Z,17.00
2023-04-21T17:11:14.261Z,17.00
2023-04-21T17:13:42.194Z,16.90
2023-04-21T17:16:10.453Z,16.90
2023-04-21T17:18:38.366Z,16.80
2023-04-21T17:21:06.904Z,16.80
2023-04-21T17:23:34.750Z,16.70
2023-04-21T17:26:03.753Z,16.70
2023-04-21T17:28:33.504Z,16.60
2023-04-21T17:31:13.624Z,16.50
2023-04-21T17:33:42.158Z,16.50
2023-04-21T17:36:10.105Z,16.40
2023-04-21T17:38:38.387Z,16.40
2023-04-21T17:41:06.805Z,16.40
2023-04-21T17:43:36.114Z,16.40
2023-04-21T17:46:04.363Z,16.40
2023-04-21T17:48:32.279Z,16.30
2023-04-21T17:51:00.195Z,16.30
2023-04-21T17:53:28.131Z,16.30
2023-04-21T17:55:56.436Z,16.30
2023-04-21T17:58:24.404Z,16.30
2023-04-21T18:00:53.593Z,16.30
2023-04-21T18:03:22.084Z,16.40
2023-04-21T18:05:50.810Z,16.40
2023-04-21T18:08:19.008Z,16.30
2023-04-21T18:10:47.102Z,16.30
2023-04-21T18:13:15.329Z,16.20
2023-04-21T18:15:43.236Z,16.10
2023-04-21T18:18:12.624Z,16.10
2023-04-21T18:20:40.609Z,16.00
2023-04-21T18:23:08.664Z,16.00
2023-04-21T18:25:42.538Z,15.90
2023-04-21T18:28:12.691Z,15.80
2023-04-21T18:30:41.080Z,15.80
2023-04-21T18:33:09.251Z,15.70
2023-04-21T18:35:38.540Z,15.60
2023-04-21T18:38:08.237Z,15.60
2023-04-21T18:40:37.252Z,15.60
2023-04-21T18:43:05.934Z,15.60
2023-04-21T18:45:33.943Z,15.50
2023-04-21T18:48:01.878Z,15.50
2023-04-21T18:50:32.267Z,15.40
2023-04-21T18:53:01.447Z,15.40
2023-04-21T18:55:30.525Z,15.40
2023-04-21T18:57:58.377Z,15.40
2023-04-21T19:00:26.314Z,15.40
2023-04-21T19:02:54.364Z,15.30
2023-04-21T19:05:22.288Z,15.30
2023-04-21T19:07:52.521Z,15.30
2023-04-21T19:10:21.725Z,15.30
2023-04-21T19:12:49.877Z,15.30
2023-04-21T19:15:17.856Z,15.20
2023-04-21T19:17:45.934Z,15.20
2023-04-21T19:20:13.982Z,15.10
2023-04-21T19:22:42.530Z,15.10
2023-04-21T19:25:12.020Z,15.10
2023-04-21T19:27:42.221Z,15.00
2023-04-21T19:30:13.815Z,15.00
2023-04-21T19:32:41.903Z,15.00
2023-04-21T19:35:10.332Z,14.90
2023-04-21T19:37:38.309Z,14.90
2023-04-21T19:40:08.006Z,14.80
2023-04-21T19:42:35.902Z,14.80
2023-04-21T19:45:06.887Z,14.80
2023-04-21T19:47:36.269Z,14.80
2023-04-21T19:50:04.779Z,14.70
2023-04-21T19:52:32.640Z,14.70
2023-04-21T19:55:00.547Z,14.60
2023-04-21T19:57:28.369Z,14.60
2023-04-21T19:59:56.267Z,14.60
2023-04-21T20:02:26.145Z,14.50
2023-04-21T20:04:54.536Z,14.50
2023-04-21T20:07:22.745Z,14.50
2023-04-21T20:09:50.589Z,14.50
2023-04-21T20:12:18.404Z,14.40
2023-04-21T20:14:46.223Z,14.40
2023-04-21T20:17:14.098Z,14.30
2023-04-21T20:19:43.233Z,14.30
2023-04-21T20:22:11.179Z,14.30
2023-04-21T20:24:39.013Z,14.30
2023-04-21T20:27:09.757Z,14.20
2023-04-21T20:29:37.957Z,14.20
2023-04-21T20:32:06.270Z,14.20
2023-04-21T20:34:34.161Z,14.20
2023-04-21T20:37:05.763Z,14.10
2023-04-21T20:39:33.601Z,14.10
2023-04-21T20:42:12.416Z,14.10
2023-04-21T20:44:42.718Z,14.00
2023-04-21T20:47:11.905Z,14.00
2023-04-21T20:49:40.399Z,14.00
2023-04-21T20:52:10.220Z,14.00
2023-04-21T20:54:38.265Z,14.00
2023-04-21T20:57:07.471Z,13.90
2023-04-21T20:59:35.685Z,13.90
2023-04-21T21:02:04.088Z,13.90
2023-04-21T21:04:32.267Z,13.80
2023-04-21T21:07:01.193Z,13.80
2023-04-21T21:09:31.763Z,13.80
2023-04-21T21:12:03.549Z,13.80
2023-04-21T21:14:31.467Z,13.70
2023-04-21T21:16:59.573Z,13.80
2023-04-21T21:19:27.537Z,13.80
2023-04-21T21:21:55.395Z,13.70
2023-04-21T21:24:23.369Z,13.70
2023-04-21T21:26:52.564Z,13.60
2023-04-21T21:29:20.452Z,13.60
2023-04-21T21:31:48.257Z,13.60
2023-04-21T21:34:16.076Z,13.60
2023-04-21T21:36:44.104Z,13.50
2023-04-21T21:39:11.954Z,13.50
2023-04-21T21:41:39.814Z,13.50
2023-04-21T21:44:10.384Z,13.50
2023-04-21T21:46:38.307Z,13.50
2023-04-21T21:49:06.232Z,13.50
2023-04-21T21:51:34.134Z,13.40
2023-04-21T21:54:01.968Z,13.40
2023-04-21T21:56:29.848Z,13.40
2023-04-21T21:58:57.771Z,13.40
2023-04-21T22:01:27.307Z,13.40
2023-04-21T22:03:55.264Z,13.30
2023-04-21T22:06:24.421Z,13.30
2023-04-21T22:08:52.685Z,13.30
2023-04-21T22:11:20.817Z,13.30
2023-04-21T22:13:48.673Z,13.30
2023-04-21T22:16:16.907Z,13.30
2023-04-21T22:18:48.190Z,13.20
2023-04-21T22:21:15.996Z,13.20
2023-04-21T22:23:43.890Z,13.20
2023-04-21T22:26:11.743Z,13.10
2023-04-21T22:28:41.673Z,13.10
2023-04-21T22:31:10.278Z,13.10
2023-04-21T22:33:38.602Z,13.10
2023-04-21T22:36:09.873Z,13.10
2023-04-21T22:38:38.343Z,13.00
2023-04-21T22:41:06.638Z,13.00
2023-04-21T22:43:35.962Z,13.00
2023-04-21T22:46:03.886Z,13.00
2023-04-21T22:48:32.712Z,12.90
2023-04-21T22:51:01.594Z,12.90
2023-04-21T22:53:31.249Z,12.90
2023-04-21T22:55:59.177Z,12.80
2023-04-21T22:58:27.163Z,12.90
2023-04-21T23:00:55.095Z,12.80
2023-04-21T23:03:24.206Z,12.80
2023-04-21T23:05:52.547Z,12.80
2023-04-21T23:08:20.415Z,12.70
2023-04-21T23:10:49.738Z,12.70
2023-04-21T23:13:17.595Z,12.70
2023-04-21T23:15:45.492Z,12.70
2023-04-21T23:18:13.385Z,12.70
2023-04-21T23:20:41.264Z,12.70
2023-04-21T23:23:09.480Z,12.70
2023-04-21T23:25:37.360Z,12.60
2023-04-21T23:28:06.560Z,12.60
2023-04-21T23:30:34.434Z,12.60
2023-04-21T23:33:02.543Z,12.60
2023-04-21T23:35:30.484Z,12.60
2023-04-21T23:37:58.319Z,12.60
2023-04-21T23:40:26.281Z,12.50
2023-04-21T23:42:54.152Z,12.50
2023-04-21T23:45:23.616Z,12.50
2023-04-21T23:47:51.458Z,12.50
2023-04-21T23:50:19.640Z,12.50
2023-04-21T23:52:48.903Z,12.40
2023-04-21T23:55:16.852Z,12.50
2023-04-21T23:57:46.695Z,12.40
